Time;durP1;ratioP1;P1;durP2;ratioP2;P2;SDS_P1;SDS_P2;PMS_P1;PMS_P2;Temp;Humidity;BMP_temperature;BMP_pressure;BME280_temperature;BME280_humidity;BME280_pressure;Samples;Min_cycle;Max_cycle;Signal;HPM_P1;HPM_P2
2022/11/06 00:01:19;;;;;;;9.73;4.10;;;;;;;8.32;92.02;101399.34;5036816;28;20510;-91
2022/11/06 00:03:45;;;;;;;9.10;4.00;;;;;;;8.33;91.68;101402.78;5035504;28;20131;-90
2022/11/06 00:09:02;;;;;;;8.25;3.70;;;;;;;8.32;91.48;101412.25;5037021;28;20087;-90
2022/11/06 00:11:29;;;;;;;7.78;3.65;;;;;;;8.31;91.53;101413.13;5037428;28;20065;-89
2022/11/06 00:13:54;;;;;;;11.68;3.85;;;;;;;8.31;91.20;101412.28;5037560;28;20378;-89
2022/11/06 00:16:20;;;;;;;9.27;4.07;;;;;;;8.27;91.55;101402.75;5037933;28;20020;-90
2022/11/06 00:18:46;;;;;;;5.63;3.72;;;;;;;8.24;91.56;101403.63;5036687;28;20025;-90
2022/11/06 00:21:22;;;;;;;6.83;3.33;;;;;;;8.23;91.44;101398.44;5036263;28;20083;-91
2022/11/06 00:23:50;;;;;;;6.32;3.10;;;;;;;8.22;91.54;101394.16;5036770;28;20026;-90
2022/11/06 00:26:23;;;;;;;5.10;3.00;;;;;;;8.21;91.62;101392.41;5036919;28;20470;-90
2022/11/06 00:28:49;;;;;;;7.40;3.42;;;;;;;8.15;91.97;101390.66;5036886;28;20057;-89
2022/11/06 00:31:20;;;;;;;8.60;3.33;;;;;;;8.12;92.17;101390.66;5036797;28;20079;-91
2022/11/06 00:33:45;;;;;;;7.45;3.30;;;;;;;8.11;92.03;101389.75;5036012;28;20026;-90
2022/11/06 00:36:16;;;;;;;6.17;3.40;;;;;;;8.10;91.85;101385.47;5036362;28;20048;-90
2022/11/06 00:38:41;;;;;;;7.22;3.20;;;;;;;8.07;92.11;101380.28;5036247;28;20156;-91
2022/11/06 00:41:13;;;;;;;6.00;3.33;;;;;;;8.04;92.20;101368.22;5037788;28;20037;-89
2022/11/06 00:43:39;;;;;;;7.05;3.17;;;;;;;8.03;92.26;101366.50;5037457;28;20025;-88
2022/11/06 00:46:06;;;;;;;4.50;2.90;;;;;;;8.02;91.98;101362.19;5039176;28;20096;-91
2022/11/06 00:48:33;;;;;;;4.75;2.72;;;;;;;8.01;92.11;101370.78;5036157;28;20057;-91
2022/11/06 00:51:05;;;;;;;5.68;2.92;;;;;;;7.99;92.15;101364.75;5035696;28;20026;-90
2022/11/06 00:53:31;;;;;;;6.15;3.00;;;;;;;8.00;91.98;101378.53;5036483;28;20021;-89
2022/11/06 00:56:11;;;;;;;3.70;2.70;;;;;;;8.00;92.02;101382.00;5035612;28;20493;-89
2022/11/06 00:58:38;;;;;;;5.53;3.15;;;;;;;7.98;92.03;101377.69;5036291;28;20033;-90
2022/11/06 01:01:10;;;;;;;5.57;3.00;;;;;;;7.96;92.46;101379.38;5035648;28;20032;-90
2022/11/06 01:03:37;;;;;;;4.88;2.67;;;;;;;7.94;92.06;101375.94;5035830;28;20179;-91
2022/11/06 01:06:05;;;;;;;4.45;2.63;;;;;;;7.93;92.36;101387.13;5036012;28;20034;-90
2022/11/06 01:08:30;;;;;;;3.90;2.40;;;;;;;7.92;92.17;101383.69;5035809;28;20057;-90
2022/11/06 01:10:56;;;;;;;4.10;2.40;;;;;;;7.89;92.49;101381.06;5035715;28;20067;-91
2022/11/06 01:13:21;;;;;;;3.37;2.50;;;;;;;7.88;92.79;101374.19;5036015;28;20036;-92
2022/11/06 01:15:46;;;;;;;4.30;2.60;;;;;;;7.85;92.38;101377.63;5035946;28;20099;-92
2022/11/06 01:18:12;;;;;;;4.23;2.40;;;;;;;7.82;92.29;101375.00;5035627;28;20028;-92
2022/11/06 01:20:37;;;;;;;4.75;2.40;;;;;;;7.82;92.41;101371.59;5035647;28;20032;-92
2022/11/06 01:23:02;;;;;;;3.17;2.30;;;;;;;7.81;92.79;101372.44;5035566;28;20043;-92
2022/11/06 01:25:27;;;;;;;4.35;2.35;;;;;;;7.79;92.67;101366.38;5035437;28;20034;-93
2022/11/06 01:27:53;;;;;;;2.30;2.10;;;;;;;7.78;92.42;101359.50;5035150;28;20537;-92
2022/11/06 01:30:18;;;;;;;2.60;2.20;;;;;;;7.75;92.47;101355.19;5035115;28;20086;-92
2022/11/06 01:32:43;;;;;;;2.63;2.00;;;;;;;7.76;92.56;101356.91;5035241;28;20382;-92
2022/11/06 01:35:08;;;;;;;3.53;2.40;;;;;;;7.75;93.14;101352.59;5035550;28;20030;-93
2022/11/06 01:37:34;;;;;;;3.00;2.30;;;;;;;7.79;92.55;101351.72;5035406;28;20036;-92
2022/11/06 01:39:59;;;;;;;5.60;2.50;;;;;;;7.81;92.91;101344.84;5035286;28;20101;-92
2022/11/06 01:42:24;;;;;;;4.40;2.70;;;;;;;7.80;93.25;101337.97;5034643;28;20040;-92
2022/11/06 01:45:14;;;;;;;4.00;2.30;;;;;;;7.83;93.28;101343.16;5034756;28;20021;-92
2022/11/06 01:47:40;;;;;;;4.72;2.30;;;;;;;7.85;93.36;101335.38;5035225;28;20021;-92
2022/11/06 01:50:09;;;;;;;4.47;2.37;;;;;;;7.89;93.09;101331.97;5035044;28;20029;-92
2022/11/06 01:52:34;;;;;;;3.50;2.40;;;;;;;7.90;93.34;101328.53;5034862;28;20136;-91
2022/11/06 01:55:11;;;;;;;2.20;2.00;;;;;;;7.94;93.14;101334.56;5034939;28;20048;-91
2022/11/06 01:57:37;;;;;;;3.95;2.63;;;;;;;7.95;92.93;101336.31;5035127;28;20060;-90
2022/11/06 02:00:04;;;;;;;4.87;2.60;;;;;;;8.00;93.14;101337.16;5034965;28;20025;-90
2022/11/06 02:02:29;;;;;;;6.60;2.78;;;;;;;8.02;93.32;101330.28;5034691;28;20036;-89
2022/11/06 02:04:54;;;;;;;5.10;3.30;;;;;;;8.04;93.39;101339.78;5034699;28;20030;-89
2022/11/06 02:07:20;;;;;;;5.53;2.70;;;;;;;8.07;93.19;101331.19;5034338;28;20037;-90
2022/11/06 02:09:45;;;;;;;7.30;2.50;;;;;;;8.12;92.68;101331.19;5034915;28;20029;-90
2022/11/06 02:12:30;;;;;;;4.60;2.50;;;;;;;8.15;92.72;101333.78;5104674;23;20132;-89
2022/11/06 02:15:05;;;;;;;4.57;2.38;;;;;;;8.15;92.65;101320.84;5054142;28;20029;-90
2022/11/06 02:17:57;;;;;;;4.32;2.40;;;;;;;8.22;92.31;101319.16;5054168;28;20025;-90
2022/11/06 02:20:37;;;;;;;5.53;2.30;;;;;;;8.22;92.33;101317.41;5054271;28;20097;-90
2022/11/06 02:23:13;;;;;;;4.15;2.20;;;;;;;8.25;92.52;101312.25;5054510;28;20102;-88
2022/11/06 02:25:59;;;;;;;4.70;2.33;;;;;;;8.25;92.37;101313.97;5054058;28;20029;-90
2022/11/06 02:28:38;;;;;;;3.00;2.20;;;;;;;8.26;92.53;101307.94;5054629;28;20029;-89
2022/11/06 02:31:08;;;;;;;4.95;2.20;;;;;;;8.27;92.28;101307.97;5054193;28;20642;-91
2022/11/06 02:33:42;;;;;;;4.85;2.30;;;;;;;8.27;92.55;101307.06;5054253;28;20025;-89
2022/11/06 02:36:12;;;;;;;4.57;2.30;;;;;;;8.29;92.34;101311.38;5054254;28;20059;-90
2022/11/06 02:38:41;;;;;;;4.63;2.35;;;;;;;8.26;92.19;101305.34;5055791;28;20100;-90
2022/11/06 02:41:14;;;;;;;4.35;2.22;;;;;;;8.25;92.25;101299.34;5055612;28;20025;-90
2022/11/06 02:43:44;;;;;;;5.90;2.53;;;;;;;8.27;92.02;101295.03;5058035;28;20035;-91
2022/11/06 02:46:19;;;;;;;4.22;2.20;;;;;;;8.25;92.04;101293.28;5054853;28;20025;-90
2022/11/06 02:48:50;;;;;;;3.30;2.00;;;;;;;8.24;92.04;101296.72;5053776;28;20041;-90
2022/11/06 02:51:20;;;;;;;4.35;2.30;;;;;;;8.22;92.14;101293.31;5054152;28;20067;-90
2022/11/06 02:53:46;;;;;;;4.82;2.25;;;;;;;8.22;92.49;101293.31;5054177;28;20024;-91
2022/11/06 02:56:17;;;;;;;2.38;2.10;;;;;;;8.22;92.13;101294.16;5053716;28;20021;-90
2022/11/06 02:59:01;;;;;;;2.47;1.98;;;;;;;8.21;92.06;101296.75;5054329;28;20030;-90
2022/11/06 03:01:33;;;;;;;4.30;2.10;;;;;;;8.22;92.13;101294.16;5053811;28;20031;-90
2022/11/06 03:04:04;;;;;;;2.90;2.10;;;;;;;8.22;92.18;101293.31;5053560;28;20032;-90
2022/11/06 03:06:36;;;;;;;4.40;2.00;;;;;;;8.20;92.23;101301.03;5054088;28;20025;-90
2022/11/06 03:09:07;;;;;;;4.57;2.10;;;;;;;8.21;92.26;101307.09;5053676;28;20466;-91
2022/11/06 03:11:37;;;;;;;5.30;2.10;;;;;;;8.21;92.04;101304.50;5053554;28;20045;-90
2022/11/06 03:14:12;;;;;;;3.42;1.90;;;;;;;8.22;92.32;101312.25;5055199;28;20414;-90
2022/11/06 03:16:49;;;;;;;3.63;2.10;;;;;;;8.22;92.95;101312.25;5055128;28;20021;-91
2022/11/06 03:19:29;;;;;;;4.50;2.03;;;;;;;8.26;92.63;101313.09;5053548;28;20069;-91
2022/11/06 03:22:08;;;;;;;4.70;2.20;;;;;;;8.27;92.50;101288.97;5053235;28;20025;-90
2022/11/06 03:24:59;;;;;;;6.28;2.25;;;;;;;8.29;92.25;101289.84;5053690;28;20029;-90
2022/11/06 03:27:33;;;;;;;5.22;2.20;;;;;;;8.29;92.37;101292.44;5034514;28;20052;-90
2022/11/06 03:30:10;;;;;;;4.88;2.40;;;;;;;8.27;92.47;101270.88;5053474;28;20082;-91
2022/11/06 03:32:38;;;;;;;;;;;;;;;8.25;92.31;101276.06;5054041;28;20071;-90
2022/11/06 03:35:21;;;;;;;4.25;2.20;;;;;;;8.22;92.18;101273.47;5053521;28;19909;-91
2022/11/06 03:38:04;;;;;;;5.30;2.22;;;;;;;8.24;92.07;101260.53;5053156;28;20404;-93
2022/11/06 03:40:33;;;;;;;3.00;2.00;;;;;;;8.19;92.34;101258.81;5053773;28;20432;-93
2022/11/06 03:43:02;;;;;;;3.00;2.08;;;;;;;8.17;92.72;101262.22;5053063;28;20503;-93
2022/11/06 03:45:30;;;;;;;3.75;2.20;;;;;;;8.15;92.76;101261.41;5053560;28;20048;-91
2022/11/06 03:48:10;;;;;;;4.90;2.22;;;;;;;8.14;92.92;101250.19;5053344;28;20028;-91
2022/11/06 03:51:07;;;;;;;5.22;2.30;;;;;;;8.15;93.06;101251.91;5053333;28;20084;-91
2022/11/06 03:53:44;;;;;;;2.95;2.00;;;;;;;8.15;93.06;101238.97;5052746;28;20048;-92
2022/11/06 03:56:14;;;;;;;2.90;2.10;;;;;;;8.17;92.89;101237.25;5053073;28;20037;-92
2022/11/06 03:58:44;;;;;;;3.20;2.10;;;;;;;8.19;93.03;101232.97;5053170;28;20025;-92
2022/11/06 04:01:12;;;;;;;5.13;2.30;;;;;;;8.21;93.30;101230.34;5052894;28;20485;-91
2022/11/06 04:03:46;;;;;;;4.00;2.20;;;;;;;8.22;93.45;101221.75;5053537;28;20044;-91
2022/11/06 04:06:21;;;;;;;4.70;2.20;;;;;;;8.25;93.05;101219.16;5053230;28;20029;-92
2022/11/06 04:14:24;;;;;;;5.13;2.20;;;;;;;8.29;93.30;101217.44;5057010;28;20059;-91
2022/11/06 04:16:55;;;;;;;3.53;2.20;;;;;;;8.29;93.17;101220.88;5056396;28;20028;-92
2022/11/06 04:19:22;;;;;;;2.55;2.00;;;;;;;8.29;92.83;101214.84;5056384;28;20031;-91
2022/11/06 04:21:56;;;;;;;4.43;2.10;;;;;;;8.28;93.31;101211.38;5038411;28;20450;-91
2022/11/06 04:27:39;;;;;;;5.65;2.20;;;;;;;8.31;93.30;101197.63;5036527;28;20064;-92
2022/11/06 04:30:07;;;;;;;4.63;2.25;;;;;;;8.33;93.26;101188.16;5036570;28;20033;-93
2022/11/06 04:32:44;;;;;;;2.95;2.10;;;;;;;8.35;92.81;101188.97;5036753;28;20029;-92
2022/11/06 04:35:47;;;;;;;5.90;2.50;;;;;;;8.32;93.30;101182.09;5044453;28;20028;-92
2022/11/06 04:38:38;;;;;;;3.28;2.30;;;;;;;8.36;92.86;101188.13;5057043;28;20108;-91
2022/11/06 04:41:33;;;;;;;3.30;2.03;;;;;;;8.32;92.79;101184.69;5057120;28;20044;-92
2022/11/06 04:44:04;;;;;;;3.15;2.10;;;;;;;8.28;92.93;101169.16;5058010;28;20029;-92
2022/11/06 04:46:34;;;;;;;2.38;1.90;;;;;;;8.26;92.98;101170.88;5059478;28;20017;-92
2022/11/06 04:49:02;;;;;;;3.33;1.83;;;;;;;8.23;93.35;101183.81;5056443;28;20017;-92
2022/11/06 04:51:33;;;;;;;3.38;2.00;;;;;;;8.20;93.26;101184.69;5056235;28;20052;-92
2022/11/06 04:53:58;;;;;;;4.07;2.15;;;;;;;8.17;93.00;101180.38;5055643;28;20025;-92
2022/11/06 04:56:30;;;;;;;2.80;1.70;;;;;;;8.14;93.16;101182.94;5056303;28;20025;-92
2022/11/06 04:58:56;;;;;;;2.78;2.03;;;;;;;8.09;93.73;101183.81;5055829;28;20037;-93
2022/11/06 05:01:21;;;;;;;4.47;2.10;;;;;;;8.07;93.60;101178.66;5056335;28;20110;-91
2022/11/06 05:03:47;;;;;;;3.47;2.13;;;;;;;8.06;93.61;101171.75;5055674;28;20196;-92
2022/11/06 05:06:12;;;;;;;2.70;1.90;;;;;;;8.04;93.71;101176.94;5055511;28;20047;-92
2022/11/06 05:08:38;;;;;;;3.60;1.80;;;;;;;8.04;93.82;101168.31;5055838;28;20040;-92
2022/11/06 05:11:03;;;;;;;3.20;2.10;;;;;;;8.01;93.88;101164.00;5055437;28;20130;-92
2022/11/06 05:13:28;;;;;;;3.42;2.20;;;;;;;7.98;94.12;101157.97;5055828;28;20143;-92
2022/11/06 05:15:56;;;;;;;2.00;1.80;;;;;;;7.97;93.97;101169.16;5055362;28;20082;-92
2022/11/06 05:18:21;;;;;;;1.95;1.77;;;;;;;7.96;94.22;101163.13;5055880;28;20040;-91
2022/11/06 05:20:46;;;;;;;2.23;1.90;;;;;;;7.95;94.44;101151.06;5055743;28;20025;-92
2022/11/06 05:23:11;;;;;;;3.40;2.00;;;;;;;7.95;94.67;101156.22;5054938;28;20033;-92
2022/11/06 05:25:39;;;;;;;3.40;1.93;;;;;;;7.98;94.13;101156.25;5055196;28;20028;-91
2022/11/06 05:28:06;;;;;;;3.53;2.00;;;;;;;7.97;94.32;101157.09;5055409;28;20036;-93
2022/11/06 05:30:32;;;;;;;;;;;;;;;7.96;94.83;101146.78;5055907;28;20497;-91
2022/11/06 05:32:57;;;;;;;5.50;1.92;;;;;;;7.94;94.81;101154.50;5055962;28;20019;-92
2022/11/06 05:35:22;;;;;;;5.78;2.35;;;;;;;7.97;94.86;101153.66;5057351;28;20021;-91
2022/11/06 05:37:47;;;;;;;3.67;2.17;;;;;;;7.97;94.84;101148.50;5055277;28;20064;-92
2022/11/06 05:40:13;;;;;;;2.77;2.27;;;;;;;7.98;94.79;101158.81;5055344;28;20412;-92
2022/11/06 05:42:40;;;;;;;4.03;2.30;;;;;;;8.03;94.29;101153.66;5055420;28;20028;-92
2022/11/06 05:45:06;;;;;;;3.20;2.00;;;;;;;8.02;94.61;101144.16;5049196;28;20079;-91
2022/11/06 05:47:33;;;;;;;4.93;2.20;;;;;;;7.99;95.15;101142.47;5034889;28;20029;-92
2022/11/06 05:49:58;;;;;;;3.28;2.20;;;;;;;8.00;95.33;101146.78;5034452;28;20540;-92
2022/11/06 05:52:23;;;;;;;2.15;1.95;;;;;;;7.98;95.54;101143.31;5035294;28;20026;-92
2022/11/06 05:54:49;;;;;;;4.13;2.07;;;;;;;7.99;95.57;101141.59;5035183;28;20026;-91
2022/11/06 05:57:14;;;;;;;3.92;2.17;;;;;;;7.98;95.72;101139.88;5034947;28;20025;-92
2022/11/06 05:59:39;;;;;;;4.43;2.37;;;;;;;7.97;95.81;101128.66;5034766;28;20021;-91
2022/11/06 06:02:04;;;;;;;4.10;2.38;;;;;;;7.98;95.63;101138.16;5034836;28;20025;-92
2022/11/06 06:04:30;;;;;;;3.03;2.00;;;;;;;7.97;95.35;101120.06;5046913;28;20029;-91
2022/11/06 06:06:55;;;;;;;2.47;2.10;;;;;;;7.96;95.52;101114.00;5054257;28;20029;-92
2022/11/06 06:09:20;;;;;;;2.70;2.05;;;;;;;7.96;95.54;101133.84;5054772;28;20017;-92
2022/11/06 06:11:50;;;;;;;4.83;2.17;;;;;;;7.94;95.64;101123.50;5054494;28;20045;-91
2022/11/06 06:14:15;;;;;;;4.38;2.20;;;;;;;7.93;95.82;101126.97;5054681;28;20036;-94
2022/11/06 06:16:40;;;;;;;4.43;2.57;;;;;;;7.94;96.00;101120.91;5054870;28;20032;-92
2022/11/06 06:19:06;;;;;;;5.40;2.30;;;;;;;7.95;95.69;101116.63;5054076;28;20029;-91
2022/11/06 06:21:31;;;;;;;3.23;2.30;;;;;;;7.97;95.53;101110.56;5054562;28;20071;-92
2022/11/06 06:23:56;;;;;;;4.43;2.40;;;;;;;7.97;95.89;101108.00;5054607;28;20485;-91
2022/11/06 06:26:22;;;;;;;5.72;2.38;;;;;;;8.03;95.02;101109.72;5054169;28;20445;-91
2022/11/06 06:28:48;;;;;;;3.35;2.20;;;;;;;7.99;95.72;101111.44;5054190;28;20056;-92
2022/11/06 06:31:14;;;;;;;4.25;2.45;;;;;;;8.00;95.78;101108.00;5053658;28;20056;-93
2022/11/06 06:33:39;;;;;;;3.80;2.15;;;;;;;8.00;95.66;101112.28;5055345;28;20036;-93
2022/11/06 06:36:05;;;;;;;3.25;2.20;;;;;;;8.01;95.78;101111.44;5055314;28;20029;-92
2022/11/06 06:38:30;;;;;;;2.90;2.10;;;;;;;8.01;95.91;101107.13;5055594;28;20060;-92
2022/11/06 06:41:03;;;;;;;4.93;2.40;;;;;;;8.08;95.24;101120.03;5054650;28;20025;-94
2022/11/06 06:43:29;;;;;;;4.10;2.10;;;;;;;8.05;95.55;101118.34;5054354;28;20024;-94
2022/11/06 06:46:02;;;;;;;3.73;2.20;;;;;;;8.07;95.28;101124.38;5054018;28;20100;-93
2022/11/06 06:48:28;;;;;;;3.13;2.30;;;;;;;8.07;95.62;101126.94;5054104;28;20033;-92
2022/11/06 06:50:58;;;;;;;4.63;2.30;;;;;;;8.07;95.69;101120.91;5053683;28;20104;-91
2022/11/06 06:53:23;;;;;;;4.45;2.40;;;;;;;8.09;95.25;101114.00;5053939;28;20089;-93
2022/11/06 06:55:49;;;;;;;4.80;2.30;;;;;;;8.10;95.40;101111.44;5053833;28;20053;-92
2022/11/06 06:58:14;;;;;;;7.70;2.45;;;;;;;8.11;95.48;101102.81;5053731;28;20103;-93
2022/11/06 07:00:39;;;;;;;6.17;2.60;;;;;;;8.11;95.59;101097.63;5054122;28;20090;-92
2022/11/06 07:03:05;;;;;;;3.10;2.27;;;;;;;8.12;95.46;101104.53;5053831;28;20060;-92
2022/11/06 07:05:30;;;;;;;2.20;2.00;;;;;;;8.15;95.30;101111.44;5053976;28;20032;-93
2022/11/06 07:07:56;;;;;;;3.87;2.03;;;;;;;8.16;95.25;101108.84;5053449;28;20025;-92
2022/11/06 07:10:21;;;;;;;5.17;2.50;;;;;;;8.22;96.06;101107.13;5053514;28;20025;-91
2022/11/06 07:12:46;;;;;;;4.73;2.03;;;;;;;8.30;95.89;101110.56;5054125;28;20112;-93
2022/11/06 07:15:12;;;;;;;4.33;2.27;;;;;;;8.36;95.75;101105.34;5053240;28;20091;-91
2022/11/06 07:17:37;;;;;;;9.43;2.97;;;;;;;8.46;95.44;101099.31;5053747;28;20052;-86
2022/11/06 07:20:03;;;;;;;6.13;2.33;;;;;;;8.55;94.94;101092.44;5052876;28;20032;-87
2022/11/06 07:22:29;;;;;;;3.70;2.20;;;;;;;8.60;95.17;101098.44;5052831;28;20430;-87
2022/11/06 07:24:54;;;;;;;3.50;2.10;;;;;;;8.65;95.08;101100.16;5052410;28;20045;-85
2022/11/06 07:27:19;;;;;;;2.63;2.00;;;;;;;8.71;95.17;101101.00;5052300;28;20052;-86
2022/11/06 07:29:45;;;;;;;2.77;2.17;;;;;;;8.75;94.83;101098.41;5051906;28;20470;-87
2022/11/06 07:32:10;;;;;;;3.60;2.00;;;;;;;8.80;94.90;101098.38;5052568;28;20032;-89
2022/11/06 07:34:37;;;;;;;3.20;2.10;;;;;;;8.84;94.95;101097.47;5053009;28;20108;-85
2022/11/06 07:37:04;;;;;;;4.85;2.20;;;;;;;8.90;94.65;101101.78;5052408;28;20052;-87
2022/11/06 07:39:29;;;;;;;3.72;2.10;;;;;;;8.95;94.50;101105.22;5039121;28;20025;-89
2022/11/06 07:41:54;;;;;;;2.53;1.90;;;;;;;8.99;94.37;101108.66;5032870;28;20032;-90
2022/11/06 07:44:20;;;;;;;6.82;2.40;;;;;;;9.02;94.13;101096.53;5035361;28;20406;-89
2022/11/06 07:46:45;;;;;;;5.80;2.30;;;;;;;9.07;93.64;101093.94;5037920;28;20026;-91
2022/11/06 07:49:11;;;;;;;5.10;2.40;;;;;;;9.09;94.25;101090.50;5037322;28;20043;-89
2022/11/06 07:51:36;;;;;;;6.43;2.40;;;;;;;9.22;92.82;101086.09;5037192;28;20026;-90
2022/11/06 07:54:01;;;;;;;3.53;2.10;;;;;;;9.27;93.00;101079.16;5037193;28;20044;-88
2022/11/06 07:56:26;;;;;;;6.90;2.43;;;;;;;9.30;93.11;101080.00;5037275;28;20390;-88
2022/11/06 07:58:52;;;;;;;6.20;2.33;;;;;;;9.33;92.92;101083.44;5036844;28;20072;-88
2022/11/06 08:01:17;;;;;;;4.07;2.10;;;;;;;9.33;92.91;101075.69;5037101;28;20104;-89
2022/11/06 08:03:43;;;;;;;4.10;2.47;;;;;;;9.36;92.89;101077.38;5055378;28;20086;-90
2022/11/06 08:06:09;;;;;;;6.15;2.40;;;;;;;9.34;92.72;101080.00;5056922;28;20060;-89
2022/11/06 08:08:34;;;;;;;3.47;2.23;;;;;;;9.33;92.30;101078.28;5057078;28;20065;-90
2022/11/06 08:11:04;;;;;;;5.97;2.47;;;;;;;9.37;92.24;101074.78;5056345;28;20346;-88
2022/11/06 08:13:29;;;;;;;4.28;2.10;;;;;;;9.42;92.41;101074.75;5056864;28;20033;-89
2022/11/06 08:15:55;;;;;;;4.77;2.30;;;;;;;9.40;92.37;101072.16;5056329;28;20025;-90
2022/11/06 08:18:20;;;;;;;5.20;2.20;;;;;;;9.40;92.31;101072.16;5056320;28;20025;-90
2022/11/06 08:20:57;;;;;;;6.07;2.30;;;;;;;9.44;92.06;101088.53;5056323;28;20025;-90
2022/11/06 08:23:38;;;;;;;5.50;2.35;;;;;;;9.49;91.46;101075.56;5052632;28;20033;-90
2022/11/06 08:26:04;;;;;;;4.93;2.22;;;;;;;9.49;91.37;101068.66;5036284;28;20029;-90
2022/11/06 08:28:30;;;;;;;6.45;2.15;;;;;;;9.54;91.79;101068.63;5036589;28;20044;-89
2022/11/06 08:30:55;;;;;;;3.17;1.90;;;;;;;9.59;91.64;101059.06;5036423;28;20104;-89
2022/11/06 08:33:23;;;;;;;4.13;2.20;;;;;;;9.64;90.90;101051.25;5036476;28;20084;-88
2022/11/06 08:35:49;;;;;;;4.03;2.03;;;;;;;9.66;91.16;101053.00;5037047;28;20105;-89
2022/11/06 08:38:15;;;;;;;3.33;2.00;;;;;;;9.71;91.13;101056.38;5036125;28;20419;-88
2022/11/06 08:40:40;;;;;;;3.80;2.07;;;;;;;9.76;91.19;101050.31;5035375;28;20091;-87
2022/11/06 08:43:09;;;;;;;3.17;1.90;;;;;;;9.82;90.92;101050.25;5035530;28;20292;-88
2022/11/06 08:45:42;;;;;;;4.38;2.10;;;;;;;9.88;90.67;101050.22;5035673;28;20034;-87
2022/11/06 08:48:09;;;;;;;2.92;1.80;;;;;;;9.99;90.49;101044.91;5035671;28;20029;-89
2022/11/06 08:50:39;;;;;;;3.35;1.90;;;;;;;10.05;90.04;101040.53;5036001;28;20413;-88
2022/11/06 08:53:05;;;;;;;4.45;1.90;;;;;;;10.13;89.95;101031.81;5034937;28;20034;-87
2022/11/06 08:55:35;;;;;;;3.92;2.00;;;;;;;10.22;89.29;101033.44;5035089;28;20036;-88
2022/11/06 08:58:01;;;;;;;4.20;1.98;;;;;;;10.26;89.65;101030.78;5035344;28;20520;-88
2022/11/06 09:00:27;;;;;;;3.92;2.10;;;;;;;10.30;88.60;101032.50;5035414;28;20052;-87
2022/11/06 09:03:08;;;;;;;2.10;1.80;;;;;;;10.39;89.55;101033.28;5034955;28;20029;-88
2022/11/06 09:05:34;;;;;;;4.38;2.00;;;;;;;10.45;88.48;101031.47;5033232;28;20410;-89
2022/11/06 09:07:59;;;;;;;5.37;2.10;;;;;;;10.50;88.59;101023.63;5034936;28;20021;-88
2022/11/06 09:10:26;;;;;;;4.63;2.20;;;;;;;10.58;88.31;101024.44;5034986;28;20029;-87
2022/11/06 09:12:51;;;;;;;;;;;;;;;10.64;88.91;101015.66;5035460;28;20029;-87
2022/11/06 09:15:18;;;;;;;2.80;1.80;;;;;;;10.67;88.49;101005.25;5034108;28;19917;-87
2022/11/06 09:17:48;;;;;;;5.20;2.00;;;;;;;10.71;87.67;101001.75;5035302;28;20022;-87
2022/11/06 09:20:17;;;;;;;3.95;1.92;;;;;;;10.72;86.22;101000.00;5035104;28;20108;-88
2022/11/06 09:22:43;;;;;;;3.70;1.80;;;;;;;10.74;87.93;100993.06;5034147;28;20113;-89
2022/11/06 09:25:09;;;;;;;3.10;1.93;;;;;;;10.78;86.43;100989.56;5035173;28;20053;-89
2022/11/06 09:27:45;;;;;;;4.13;1.70;;;;;;;10.80;86.49;100990.41;5040648;28;20098;-89
2022/11/06 09:30:13;;;;;;;3.38;1.90;;;;;;;10.89;86.58;100979.00;5015180;28;20292;-91
2022/11/06 09:32:44;;;;;;;4.10;1.80;;;;;;;11.11;86.83;100971.75;5015240;28;20492;-91
2022/11/06 09:35:10;;;;;;;2.22;1.83;;;;;;;11.32;87.10;100961.91;5031948;28;20478;-86
2022/11/06 09:37:35;;;;;;;5.10;1.90;;;;;;;11.58;85.66;100966.66;5033043;28;20033;-88
2022/11/06 09:40:00;;;;;;;2.50;1.90;;;;;;;11.71;85.87;100962.97;5033204;28;20037;-87
2022/11/06 09:42:57;;;;;;;2.37;1.60;;;;;;;11.83;83.82;100967.06;5033149;28;20116;-87
2022/11/06 09:45:27;;;;;;;3.70;1.80;;;;;;;11.86;82.73;100972.22;5033799;28;20026;-89
2022/11/06 09:48:02;;;;;;;3.42;1.92;;;;;;;11.83;83.73;100967.06;5032695;28;20025;-88
2022/11/06 09:50:33;;;;;;;3.15;1.90;;;;;;;11.88;83.85;100974.78;5031864;28;20536;-88
2022/11/06 09:53:06;;;;;;;3.58;1.88;;;;;;;11.81;82.64;100979.25;5034730;28;20494;-88
2022/11/06 09:55:39;;;;;;;4.47;1.90;;;;;;;11.80;82.00;100968.88;5034310;28;20500;-89
2022/11/06 09:58:14;;;;;;;2.63;1.73;;;;;;;11.83;82.66;100966.22;5033582;28;20116;-88
2022/11/06 10:00:41;;;;;;;3.05;1.60;;;;;;;11.81;82.47;100968.84;5034466;28;20045;-88
2022/11/06 10:03:16;;;;;;;3.85;1.80;;;;;;;11.71;80.37;100960.34;5033613;28;20053;-88
2022/11/06 10:05:43;;;;;;;3.90;1.80;;;;;;;11.70;83.19;100955.19;5034280;28;20132;-89
2022/11/06 10:08:16;;;;;;;3.50;1.70;;;;;;;11.71;81.71;100955.16;5033574;28;20083;-88
2022/11/06 10:11:07;;;;;;;2.20;1.58;;;;;;;11.69;82.87;100949.13;5033271;28;20041;-88
2022/11/06 10:14:10;;;;;;;3.75;1.90;;;;;;;11.80;82.40;100958.47;5034386;28;20080;-88
2022/11/06 10:16:59;;;;;;;2.30;1.50;;;;;;;12.03;82.68;100953.72;5034257;28;20095;-88
2022/11/06 10:19:37;;;;;;;3.55;1.85;;;;;;;12.24;81.84;100955.94;5033221;28;20037;-88
2022/11/06 10:22:31;;;;;;;4.80;1.80;;;;;;;12.39;79.94;100939.13;5034045;28;20025;-88
2022/11/06 10:25:08;;;;;;;3.47;1.80;;;;;;;12.47;79.85;100939.81;5033016;28;20029;-88
2022/11/06 10:27:40;;;;;;;3.03;1.50;;;;;;;12.35;79.23;100941.78;5034065;28;20497;-88
2022/11/06 10:30:12;;;;;;;5.40;1.90;;;;;;;12.20;77.96;100942.13;5033913;28;20025;-89
2022/11/06 10:33:21;;;;;;;3.30;1.92;;;;;;;12.07;80.09;100941.50;5033262;28;20470;-89
2022/11/06 10:35:58;;;;;;;3.35;1.70;;;;;;;11.90;79.85;100936.59;5033646;28;20097;-89
2022/11/06 10:38:32;;;;;;;;;;;;;;;11.87;80.79;100947.94;5033826;28;20029;-88
2022/11/06 10:40:57;;;;;;;3.95;1.80;;;;;;;11.84;79.54;100936.72;5033856;28;20373;-89
2022/11/06 10:43:29;;;;;;;4.03;1.73;;;;;;;11.82;79.11;100930.69;5033809;28;20030;-88
2022/11/06 10:46:13;;;;;;;2.78;1.83;;;;;;;11.87;81.09;100913.28;5032576;28;20079;-88
2022/11/06 10:48:45;;;;;;;3.40;1.60;;;;;;;11.98;81.66;100913.06;5033442;28;20538;-88
2022/11/06 10:51:48;;;;;;;2.78;1.50;;;;;;;12.08;81.68;100908.56;5034980;28;20017;-91
2022/11/06 10:54:29;;;;;;;2.10;1.60;;;;;;;12.17;80.95;100905.75;5052996;28;20087;-93
2022/11/06 10:57:00;;;;;;;1.50;1.30;;;;;;;12.21;79.98;100884.00;5053497;28;20029;-90
2022/11/06 10:59:28;;;;;;;2.63;1.55;;;;;;;12.26;80.34;100891.72;5036169;28;20048;-90
2022/11/06 11:01:53;;;;;;;3.50;2.00;;;;;;;12.27;78.55;100890.81;5033959;28;20029;-91
2022/11/06 11:04:18;;;;;;;6.53;2.43;;;;;;;12.23;77.53;100884.81;5034016;28;20029;-92
2022/11/06 11:06:45;;;;;;;5.30;2.00;;;;;;;12.25;78.27;100880.44;5034023;28;20025;-90
2022/11/06 11:09:27;;;;;;;7.68;2.10;;;;;;;12.32;79.50;100876.81;5033397;28;20478;-88
2022/11/06 11:11:52;;;;;;;4.78;2.00;;;;;;;12.33;78.27;100877.66;5033237;28;20042;-90
2022/11/06 11:14:23;;;;;;;5.70;2.00;;;;;;;12.39;79.44;100863.66;5033570;28;20366;-90
2022/11/06 11:16:48;;;;;;;4.78;1.80;;;;;;;12.42;77.54;100867.03;5033636;28;20453;-89
2022/11/06 11:19:31;;;;;;;2.80;1.80;;;;;;;12.38;77.26;100870.63;5037255;28;20045;-90
2022/11/06 11:22:15;;;;;;;5.25;1.80;;;;;;;12.33;76.36;100873.31;5046099;28;20036;-92
2022/11/06 11:24:57;;;;;;;3.10;1.90;;;;;;;12.27;76.65;100867.41;5058354;28;20025;-89
2022/11/06 11:27:24;;;;;;;4.30;1.90;;;;;;;12.20;75.83;100864.91;5057719;28;20063;-91
2022/11/06 11:29:49;;;;;;;5.82;1.80;;;;;;;12.12;75.95;100853.84;5057098;28;20108;-90
2022/11/06 11:32:17;;;;;;;3.83;1.80;;;;;;;12.07;76.69;100852.22;5057417;28;20041;-90
2022/11/06 11:34:46;;;;;;;3.67;1.60;;;;;;;12.06;76.44;100843.53;5056920;28;20029;-89
2022/11/06 11:37:33;;;;;;;3.28;1.70;;;;;;;12.06;77.84;100843.53;5057296;28;20017;-89
2022/11/06 11:40:34;;;;;;;3.20;1.70;;;;;;;12.05;76.23;100834.91;5056798;28;20104;-91
2022/11/06 11:43:18;;;;;;;3.22;1.75;;;;;;;12.01;77.09;100837.59;5056531;28;20029;-89
2022/11/06 11:46:08;;;;;;;3.78;2.13;;;;;;;11.95;76.49;100837.69;5049253;28;20415;-90
2022/11/06 11:49:04;;;;;;;5.68;2.03;;;;;;;11.87;76.87;100828.31;5027501;28;20040;-88
2022/11/06 11:51:39;;;;;;;3.88;1.70;;;;;;;11.85;77.51;100822.28;5023991;28;20060;-87
2022/11/06 11:54:10;;;;;;;2.33;1.48;;;;;;;11.82;75.49;100826.69;5036048;28;20017;-90
2022/11/06 11:56:57;;;;;;;4.53;1.80;;;;;;;11.83;75.06;100823.19;5035742;28;20390;-91
2022/11/06 11:59:25;;;;;;;;;;;;;;;11.76;76.53;100816.44;5036849;28;20055;-89